Time;durP1;ratioP1;P1;durP2;ratioP2;P2;SDS_P1;SDS_P2;PMS_P1;PMS_P2;Temp;Humidity;BMP_temperature;BMP_pressure;BME280_temperature;BME280_humidity;BME280_pressure;Samples;Min_cycle;Max_cycle;Signal;HPM_P1;HPM_P2
2023/03/31 00:00:59;;;;;;;0.57;0.57;;;;;;;;;;5042079;28;20053;-62
2023/03/31 00:03:28;;;;;;;0.22;0.22;;;;;;;;;;5036484;28;20041;-61
2023/03/31 00:05:57;;;;;;;9.75;0.75;;;;;;;;;;5040312;28;20619;-60
2023/03/31 00:08:28;;;;;;;0.60;0.55;;;;;;;;;;5038564;28;20052;-61
2023/03/31 00:11:00;;;;;;;1.75;1.10;;;;;;;;;;5038982;28;20079;-62
2023/03/31 00:13:30;;;;;;;5.78;1.85;;;;;;;;;;5038165;28;20103;-62
2023/03/31 00:15:59;;;;;;;1.23;0.77;;;;;;;;;;5040321;28;20140;-62
2023/03/31 00:18:28;;;;;;;0.82;0.55;;;;;;;;;;5039224;28;20073;-62
2023/03/31 00:21:01;;;;;;;0.30;0.30;;;;;;;;;;5039684;28;20057;-62
2023/03/31 00:23:30;;;;;;;0.52;0.50;;;;;;;;;;5038921;28;20532;-62
2023/03/31 00:26:00;;;;;;;1.17;0.70;;;;;;;;;;5037625;28;20381;-62
2023/03/31 00:28:28;;;;;;;3.75;0.82;;;;;;;;;;5036899;28;20048;-60
2023/03/31 00:31:01;;;;;;;1.05;0.70;;;;;;;;;;5039873;28;20611;-60
2023/03/31 00:33:29;;;;;;;0.70;0.45;;;;;;;;;;5037924;28;20064;-61
2023/03/31 00:36:04;;;;;;;1.00;0.77;;;;;;;;;;5038342;28;20508;-60
2023/03/31 00:38:34;;;;;;;1.38;0.80;;;;;;;;;;5037676;28;20118;-60
2023/03/31 00:41:05;;;;;;;0.80;0.80;;;;;;;;;;5038938;28;20057;-62
2023/03/31 00:43:34;;;;;;;6.28;0.90;;;;;;;;;;5037086;28;20056;-62
2023/03/31 00:46:05;;;;;;;1.77;0.70;;;;;;;;;;5038181;28;20084;-62
2023/03/31 00:48:37;;;;;;;4.78;0.80;;;;;;;;;;5036276;28;20791;-63
2023/03/31 00:51:07;;;;;;;0.98;0.88;;;;;;;;;;5039134;28;20514;-61
2023/03/31 00:53:37;;;;;;;1.00;0.80;;;;;;;;;;5038899;28;20143;-60
2023/03/31 00:56:12;;;;;;;1.00;0.90;;;;;;;;;;5044762;28;20472;-60
2023/03/31 00:58:42;;;;;;;0.55;0.55;;;;;;;;;;5042404;28;20052;-60
2023/03/31 01:01:14;;;;;;;1.17;0.75;;;;;;;;;;5042721;28;20123;-62
2023/03/31 01:03:45;;;;;;;1.45;0.75;;;;;;;;;;5055781;22;20460;-61
2023/03/31 01:06:15;;;;;;;0.85;0.73;;;;;;;;;;5013351;28;20140;-61
2023/03/31 01:08:44;;;;;;;1.30;0.77;;;;;;;;;;5012174;28;20141;-61
2023/03/31 01:11:15;;;;;;;4.85;0.60;;;;;;;;;;5012612;28;20052;-61
2023/03/31 01:13:44;;;;;;;2.08;1.35;;;;;;;;;;5014237;28;20045;-61
2023/03/31 01:16:13;;;;;;;2.70;0.98;;;;;;;;;;5009685;28;20735;-61
2023/03/31 01:18:45;;;;;;;0.63;0.63;;;;;;;;;;5009035;28;20057;-61
2023/03/31 01:21:33;;;;;;;0.82;0.50;;;;;;;;;;5014109;28;20071;-61
2023/03/31 01:24:17;;;;;;;1.30;1.13;;;;;;;;;;5008734;28;20049;-61
2023/03/31 01:27:04;;;;;;;0.30;0.30;;;;;;;;;;5008456;28;20091;-61
2023/03/31 01:29:50;;;;;;;1.63;1.50;;;;;;;;;;5012540;28;20054;-61
2023/03/31 01:32:30;;;;;;;4.45;1.55;;;;;;;;;;5010724;28;20176;-61
2023/03/31 01:35:09;;;;;;;2.53;0.95;;;;;;;;;;5010890;28;20053;-61
2023/03/31 01:37:56;;;;;;;1.52;0.95;;;;;;;;;;5014158;28;20049;-61
2023/03/31 01:40:54;;;;;;;0.82;0.82;;;;;;;;;;5010999;28;20057;-61
2023/03/31 01:43:27;;;;;;;3.95;1.15;;;;;;;;;;4939705;28;20054;-61
2023/03/31 01:45:58;;;;;;;1.02;0.90;;;;;;;;;;4997280;28;20491;-61
2023/03/31 01:48:35;;;;;;;0.90;0.90;;;;;;;;;;5014414;28;20053;-61
2023/03/31 01:51:06;;;;;;;1.38;1.27;;;;;;;;;;5009443;28;20089;-61
2023/03/31 01:53:36;;;;;;;0.88;0.80;;;;;;;;;;5009702;28;20133;-61
2023/03/31 01:56:08;;;;;;;0.98;0.85;;;;;;;;;;5010117;28;20080;-61
2023/03/31 01:58:39;;;;;;;0.93;0.73;;;;;;;;;;5010889;28;20100;-60
2023/03/31 02:01:14;;;;;;;1.70;0.80;;;;;;;;;;5012778;28;20046;-61
2023/03/31 02:03:47;;;;;;;9.73;1.13;;;;;;;;;;5010744;28;20108;-61
2023/03/31 02:06:18;;;;;;;7.75;1.48;;;;;;;;;;5012651;28;20495;-61
2023/03/31 02:08:48;;;;;;;1.60;0.82;;;;;;;;;;5012554;28;20076;-61
2023/03/31 02:11:17;;;;;;;2.75;1.42;;;;;;;;;;5016204;28;20042;-61
2023/03/31 02:13:47;;;;;;;1.63;0.82;;;;;;;;;;5007518;28;20050;-61
2023/03/31 02:16:17;;;;;;;1.98;1.05;;;;;;;;;;5008970;28;20049;-61
2023/03/31 02:18:48;;;;;;;6.82;1.60;;;;;;;;;;5012773;28;20054;-61
2023/03/31 02:21:17;;;;;;;0.93;0.93;;;;;;;;;;5008986;28;20069;-61
2023/03/31 02:23:46;;;;;;;1.55;1.35;;;;;;;;;;5011987;28;20049;-61
2023/03/31 02:26:16;;;;;;;1.40;1.00;;;;;;;;;;5010316;28;20068;-61
2023/03/31 02:28:44;;;;;;;2.38;1.10;;;;;;;;;;5009404;28;20401;-61
2023/03/31 02:31:22;;;;;;;1.17;0.98;;;;;;;;;;5008052;28;20419;-61
2023/03/31 02:33:50;;;;;;;2.35;0.70;;;;;;;;;;5005476;28;20045;-61
2023/03/31 02:36:20;;;;;;;0.65;0.65;;;;;;;;;;5009308;28;20124;-60
2023/03/31 02:38:50;;;;;;;1.38;1.27;;;;;;;;;;5011175;28;20045;-61
2023/03/31 02:41:19;;;;;;;0.95;0.85;;;;;;;;;;5011562;28;20453;-61
2023/03/31 02:43:47;;;;;;;3.45;1.83;;;;;;;;;;5010522;28;20060;-60
2023/03/31 02:46:17;;;;;;;0.90;0.82;;;;;;;;;;5008163;28;20046;-61
2023/03/31 02:48:48;;;;;;;3.80;2.78;;;;;;;;;;5015541;28;20050;-61
2023/03/31 02:51:26;;;;;;;1.05;0.95;;;;;;;;;;5010037;28;20049;-61
2023/03/31 02:54:05;;;;;;;1.40;1.15;;;;;;;;;;5008107;28;20065;-60
2023/03/31 02:56:43;;;;;;;2.92;1.65;;;;;;;;;;5009827;28;20474;-61
2023/03/31 02:59:25;;;;;;;3.45;2.60;;;;;;;;;;5003223;28;20054;-61
2023/03/31 03:02:03;;;;;;;1.83;1.50;;;;;;;;;;5009714;28;20534;-61
2023/03/31 03:04:38;;;;;;;4.22;1.50;;;;;;;;;;5009147;28;20049;-61
2023/03/31 03:07:08;;;;;;;1.77;1.65;;;;;;;;;;5013612;28;20355;-61
2023/03/31 03:09:44;;;;;;;4.10;1.70;;;;;;;;;;5009856;28;20050;-61
2023/03/31 03:12:17;;;;;;;3.08;2.13;;;;;;;;;;5010182;28;20909;-61
2023/03/31 03:14:47;;;;;;;2.72;1.38;;;;;;;;;;5010047;28;20132;-62
2023/03/31 03:17:21;;;;;;;6.82;1.20;;;;;;;;;;5007885;28;20053;-62
2023/03/31 03:19:52;;;;;;;6.47;1.70;;;;;;;;;;5013091;28;20080;-62
2023/03/31 03:22:20;;;;;;;6.13;0.95;;;;;;;;;;5015842;28;20045;-62
2023/03/31 03:24:48;;;;;;;7.75;1.48;;;;;;;;;;5006153;28;20146;-62
2023/03/31 03:27:16;;;;;;;1.67;0.98;;;;;;;;;;5009597;28;20513;-63
2023/03/31 03:29:46;;;;;;;3.70;0.63;;;;;;;;;;5009227;28;20068;-63
2023/03/31 03:32:14;;;;;;;5.55;1.27;;;;;;;;;;5008195;28;20041;-63
2023/03/31 03:34:44;;;;;;;1.25;1.02;;;;;;;;;;5008485;28;20046;-63
2023/03/31 03:37:12;;;;;;;3.13;1.30;;;;;;;;;;5008505;28;20049;-62
2023/03/31 03:39:41;;;;;;;3.05;1.27;;;;;;;;;;5010021;28;21187;-63
2023/03/31 03:42:09;;;;;;;7.22;1.45;;;;;;;;;;5010840;28;20475;-64
2023/03/31 03:44:37;;;;;;;2.83;1.70;;;;;;;;;;5007153;28;20052;-63
2023/03/31 03:47:06;;;;;;;1.45;1.23;;;;;;;;;;5004462;28;20157;-63
2023/03/31 03:49:34;;;;;;;2.03;1.80;;;;;;;;;;5010468;28;20060;-64
2023/03/31 03:52:04;;;;;;;3.58;1.65;;;;;;;;;;4994813;28;20049;-63
2023/03/31 03:54:32;;;;;;;0.70;0.65;;;;;;;;;;5008408;28;20538;-63
2023/03/31 03:57:01;;;;;;;1.75;1.00;;;;;;;;;;5007539;28;20519;-62
2023/03/31 03:59:29;;;;;;;4.10;1.50;;;;;;;;;;5013054;28;20069;-63
2023/03/31 04:01:57;;;;;;;1.80;1.08;;;;;;;;;;5007463;28;20068;-63
2023/03/31 04:04:26;;;;;;;1.73;0.90;;;;;;;;;;5008273;28;20100;-63
2023/03/31 04:06:54;;;;;;;6.30;1.02;;;;;;;;;;5005163;28;20042;-62
2023/03/31 04:09:24;;;;;;;7.03;1.60;;;;;;;;;;5007514;28;20060;-62
2023/03/31 04:11:52;;;;;;;1.77;1.13;;;;;;;;;;5007615;28;20056;-62
2023/03/31 04:14:20;;;;;;;1.30;0.63;;;;;;;;;;5010993;28;20052;-62
2023/03/31 04:16:49;;;;;;;0.90;0.70;;;;;;;;;;5005346;28;20505;-62
2023/03/31 04:19:17;;;;;;;1.83;1.15;;;;;;;;;;5009493;28;20129;-62
2023/03/31 04:21:49;;;;;;;1.92;1.27;;;;;;;;;;5010193;28;20085;-61
2023/03/31 04:24:20;;;;;;;1.83;1.65;;;;;;;;;;5010080;28;20075;-61
2023/03/31 04:26:50;;;;;;;3.38;1.48;;;;;;;;;;5006948;28;20077;-61
2023/03/31 04:29:21;;;;;;;4.22;0.95;;;;;;;;;;5010768;28;20675;-60
2023/03/31 04:31:51;;;;;;;0.90;0.90;;;;;;;;;;5012735;28;20046;-61
2023/03/31 04:34:21;;;;;;;4.00;1.58;;;;;;;;;;5009318;28;20048;-61
2023/03/31 04:36:49;;;;;;;1.80;1.02;;;;;;;;;;5008054;28;20054;-61
2023/03/31 04:39:23;;;;;;;2.67;1.15;;;;;;;;;;5014320;28;20064;-61
2023/03/31 04:41:52;;;;;;;4.85;1.38;;;;;;;;;;5011043;28;20415;-62
2023/03/31 04:44:21;;;;;;;1.63;1.10;;;;;;;;;;5014822;28;20059;-61
2023/03/31 04:46:49;;;;;;;1.35;1.00;;;;;;;;;;5015304;28;20443;-61
2023/03/31 04:49:17;;;;;;;4.25;1.05;;;;;;;;;;5014240;28;20053;-61
2023/03/31 04:51:46;;;;;;;4.63;1.10;;;;;;;;;;5011747;28;20469;-61
2023/03/31 04:54:14;;;;;;;2.13;1.35;;;;;;;;;;5011303;28;20478;-61
2023/03/31 04:56:43;;;;;;;1.67;0.95;;;;;;;;;;5010023;28;20041;-61
2023/03/31 04:59:13;;;;;;;2.55;1.15;;;;;;;;;;5013984;28;20209;-63
2023/03/31 05:01:43;;;;;;;2.28;1.20;;;;;;;;;;5010735;28;20080;-63
2023/03/31 05:04:12;;;;;;;3.13;1.60;;;;;;;;;;5011508;28;20057;-62
2023/03/31 05:06:40;;;;;;;2.60;1.58;;;;;;;;;;5011254;28;20057;-62
2023/03/31 05:09:09;;;;;;;3.92;1.65;;;;;;;;;;5016479;28;20500;-62
2023/03/31 05:11:38;;;;;;;1.20;0.85;;;;;;;;;;5010016;28;20124;-62
2023/03/31 05:14:06;;;;;;;3.08;1.40;;;;;;;;;;5012005;28;20116;-62
2023/03/31 05:16:36;;;;;;;1.67;1.10;;;;;;;;;;5009515;28;20049;-62
2023/03/31 05:19:04;;;;;;;1.45;1.13;;;;;;;;;;5010286;28;20463;-62
2023/03/31 05:21:33;;;;;;;2.35;1.42;;;;;;;;;;5008711;28;20043;-62
2023/03/31 05:24:01;;;;;;;2.25;1.15;;;;;;;;;;5014635;28;20069;-62
2023/03/31 05:26:30;;;;;;;2.00;1.30;;;;;;;;;;5010989;28;20076;-62
2023/03/31 05:28:58;;;;;;;1.13;0.88;;;;;;;;;;5011254;28;20703;-62
2023/03/31 05:31:27;;;;;;;3.38;1.17;;;;;;;;;;5011427;28;20145;-61
2023/03/31 05:33:56;;;;;;;1.35;1.25;;;;;;;;;;5010509;28;20060;-62
2023/03/31 05:36:25;;;;;;;1.67;1.10;;;;;;;;;;5012201;28;20049;-62
2023/03/31 05:38:54;;;;;;;2.78;1.05;;;;;;;;;;5007695;28;20053;-62
2023/03/31 05:41:22;;;;;;;2.03;1.27;;;;;;;;;;5011471;28;20494;-62
2023/03/31 05:43:51;;;;;;;2.30;1.42;;;;;;;;;;5010661;28;20172;-62
2023/03/31 05:46:19;;;;;;;1.48;1.27;;;;;;;;;;5012888;28;20042;-61
2023/03/31 05:48:47;;;;;;;6.75;1.38;;;;;;;;;;5014082;28;20046;-61
2023/03/31 05:51:17;;;;;;;2.38;1.52;;;;;;;;;;5010930;28;20494;-62
2023/03/31 05:53:45;;;;;;;2.65;1.60;;;;;;;;;;5013102;28;20081;-61
2023/03/31 05:56:14;;;;;;;3.05;1.17;;;;;;;;;;5010600;28;20053;-62
2023/03/31 05:58:42;;;;;;;4.20;1.25;;;;;;;;;;5013225;28;20044;-61
2023/03/31 06:01:11;;;;;;;3.55;1.08;;;;;;;;;;5012143;28;20529;-62
2023/03/31 06:03:40;;;;;;;8.73;1.90;;;;;;;;;;5008312;28;20057;-62
2023/03/31 06:06:11;;;;;;;6.13;2.28;;;;;;;;;;5014438;28;20123;-62
2023/03/31 06:08:41;;;;;;;1.83;1.25;;;;;;;;;;5010318;28;20295;-61
2023/03/31 06:11:10;;;;;;;1.52;1.15;;;;;;;;;;5009465;28;20054;-61
2023/03/31 06:13:39;;;;;;;4.95;2.75;;;;;;;;;;5011590;28;20471;-62
2023/03/31 06:16:08;;;;;;;4.70;1.55;;;;;;;;;;5013799;28;20069;-61
2023/03/31 06:18:36;;;;;;;1.70;1.25;;;;;;;;;;5010604;28;20061;-61
2023/03/31 06:21:05;;;;;;;2.70;1.23;;;;;;;;;;5011289;28;20572;-61
2023/03/31 06:23:34;;;;;;;8.30;2.10;;;;;;;;;;5009211;28;20052;-62
2023/03/31 06:26:06;;;;;;;5.20;1.67;;;;;;;;;;4999140;28;20058;-61
2023/03/31 06:28:35;;;;;;;3.55;2.13;;;;;;;;;;5009931;28;20046;-61
2023/03/31 06:31:04;;;;;;;1.70;1.60;;;;;;;;;;5007500;28;20079;-61
2023/03/31 06:33:33;;;;;;;3.00;1.20;;;;;;;;;;5008097;28;20506;-61
2023/03/31 06:36:04;;;;;;;3.40;1.35;;;;;;;;;;5003334;28;20046;-61
2023/03/31 06:38:33;;;;;;;3.10;1.33;;;;;;;;;;5007567;28;20038;-62
2023/03/31 06:41:01;;;;;;;5.22;1.67;;;;;;;;;;5010825;28;20141;-61
2023/03/31 06:43:31;;;;;;;8.52;1.70;;;;;;;;;;5006688;28;20449;-61
2023/03/31 06:46:00;;;;;;;8.68;1.90;;;;;;;;;;5008502;28;20061;-62
2023/03/31 06:48:28;;;;;;;1.98;1.25;;;;;;;;;;5009850;28;20076;-62
2023/03/31 06:50:59;;;;;;;1.83;0.93;;;;;;;;;;5009101;28;20064;-62
2023/03/31 06:53:27;;;;;;;4.45;1.40;;;;;;;;;;5005810;28;20475;-62
2023/03/31 06:55:56;;;;;;;4.32;1.48;;;;;;;;;;5009427;28;20045;-62
2023/03/31 06:58:24;;;;;;;3.13;1.17;;;;;;;;;;5013406;28;20049;-62
2023/03/31 07:00:55;;;;;;;7.97;1.45;;;;;;;;;;5011512;28;20602;-63
2023/03/31 07:03:24;;;;;;;1.67;1.25;;;;;;;;;;5017010;28;20100;-62
2023/03/31 07:05:53;;;;;;;5.60;1.40;;;;;;;;;;5012362;28;20068;-62
2023/03/31 07:08:22;;;;;;;2.25;1.30;;;;;;;;;;5008331;28;20056;-61
2023/03/31 07:10:51;;;;;;;1.83;0.98;;;;;;;;;;5010438;28;20050;-63
2023/03/31 07:13:20;;;;;;;1.27;0.88;;;;;;;;;;5007902;28;20369;-62
2023/03/31 07:15:48;;;;;;;3.85;1.48;;;;;;;;;;5008401;28;20045;-62
2023/03/31 07:18:18;;;;;;;1.05;0.70;;;;;;;;;;5013703;28;20045;-62
2023/03/31 07:20:49;;;;;;;1.52;0.80;;;;;;;;;;5010351;28;20050;-61
2023/03/31 07:23:17;;;;;;;2.00;1.20;;;;;;;;;;5010038;28;20167;-61
2023/03/31 07:25:47;;;;;;;6.13;1.60;;;;;;;;;;5007937;28;20142;-62
2023/03/31 07:28:15;;;;;;;3.65;1.25;;;;;;;;;;5009361;28;20085;-63
2023/03/31 07:30:43;;;;;;;4.00;1.30;;;;;;;;;;5008170;28;20124;-63
2023/03/31 07:33:12;;;;;;;5.30;1.52;;;;;;;;;;5008824;28;20111;-63
2023/03/31 07:35:42;;;;;;;4.13;1.30;;;;;;;;;;5008767;28;20057;-62
2023/03/31 07:38:11;;;;;;;3.00;1.35;;;;;;;;;;5009639;28;20045;-63
2023/03/31 07:40:40;;;;;;;1.67;1.27;;;;;;;;;;5014151;28;20125;-63
2023/03/31 07:43:08;;;;;;;3.17;1.75;;;;;;;;;;5016202;28;20132;-63
2023/03/31 07:45:39;;;;;;;6.85;1.67;;;;;;;;;;5016912;28;20064;-63
2023/03/31 07:48:08;;;;;;;3.45;1.10;;;;;;;;;;5016467;28;20148;-63
2023/03/31 07:50:36;;;;;;;9.20;1.40;;;;;;;;;;5009337;28;20556;-63
2023/03/31 07:53:06;;;;;;;6.15;1.83;;;;;;;;;;5013028;28;20080;-65
2023/03/31 07:55:35;;;;;;;1.80;1.42;;;;;;;;;;5010932;28;20165;-63
2023/03/31 07:58:03;;;;;;;1.35;1.25;;;;;;;;;;5002517;28;20057;-62
2023/03/31 08:00:31;;;;;;;9.93;1.63;;;;;;;;;;5011120;28;20058;-62
2023/03/31 08:03:00;;;;;;;5.38;1.92;;;;;;;;;;5008129;28;20400;-66
2023/03/31 08:05:28;;;;;;;5.43;1.85;;;;;;;;;;5013919;28;20058;-63
2023/03/31 08:07:57;;;;;;;2.53;0.95;;;;;;;;;;5009997;28;20430;-63
2023/03/31 08:10:27;;;;;;;3.25;1.38;;;;;;;;;;5012057;28;20057;-62
2023/03/31 08:12:56;;;;;;;0.57;0.57;;;;;;;;;;5014152;28;20058;-62
2023/03/31 08:15:24;;;;;;;2.85;1.55;;;;;;;;;;5012609;28;20141;-62
2023/03/31 08:17:53;;;;;;;1.23;0.88;;;;;;;;;;5010329;28;20049;-62
2023/03/31 08:20:21;;;;;;;2.30;1.15;;;;;;;;;;5010090;28;20042;-62
2023/03/31 08:22:50;;;;;;;3.03;1.38;;;;;;;;;;5008197;28;20054;-62
2023/03/31 08:25:20;;;;;;;6.68;1.35;;;;;;;;;;5005777;28;20042;-62
2023/03/31 08:27:50;;;;;;;2.35;1.63;;;;;;;;;;5005687;28;20050;-62
2023/03/31 08:30:19;;;;;;;4.45;2.17;;;;;;;;;;5011810;28;20149;-62
2023/03/31 08:32:47;;;;;;;4.30;2.42;;;;;;;;;;5006803;28;20539;-61
2023/03/31 08:35:16;;;;;;;12.88;2.20;;;;;;;;;;5009649;28;20050;-62
2023/03/31 08:37:44;;;;;;;1.92;1.55;;;;;;;;;;5002775;28;20505;-61
2023/03/31 08:40:15;;;;;;;1.75;1.48;;;;;;;;;;5004831;28;20137;-61
2023/03/31 08:42:46;;;;;;;1.92;1.17;;;;;;;;;;5012689;28;20041;-62
2023/03/31 08:45:19;;;;;;;2.45;1.60;;;;;;;;;;5012029;28;20129;-61
2023/03/31 08:47:48;;;;;;;1.88;1.27;;;;;;;;;;5010650;28;20396;-61
2023/03/31 08:50:19;;;;;;;2.08;1.20;;;;;;;;;;5008336;28;20054;-63
2023/03/31 08:52:51;;;;;;;2.60;1.00;;;;;;;;;;5009613;28;20606;-63
2023/03/31 08:55:23;;;;;;;3.67;1.08;;;;;;;;;;5007891;28;21209;-63
2023/03/31 08:57:56;;;;;;;4.18;1.10;;;;;;;;;;5008995;28;20064;-63
2023/03/31 09:00:26;;;;;;;2.42;1.17;;;;;;;;;;5013935;28;20392;-64
2023/03/31 09:03:00;;;;;;;1.70;0.95;;;;;;;;;;5008732;28;20073;-63
2023/03/31 09:05:51;;;;;;;1.58;1.27;;;;;;;;;;5009703;28;20474;-64
2023/03/31 09:08:33;;;;;;;1.60;1.25;;;;;;;;;;4975166;28;20062;-62
2023/03/31 09:11:06;;;;;;;2.40;1.20;;;;;;;;;;4997435;28;20059;-64
2023/03/31 09:13:48;;;;;;;1.50;1.02;;;;;;;;;;5004244;28;20057;-63
2023/03/31 09:16:22;;;;;;;1.60;0.95;;;;;;;;;;5003362;28;20132;-63
2023/03/31 09:18:52;;;;;;;1.40;0.55;;;;;;;;;;5007503;28;20049;-64
2023/03/31 09:21:23;;;;;;;6.38;1.10;;;;;;;;;;5011058;28;20054;-63
2023/03/31 09:23:56;;;;;;;2.20;1.23;;;;;;;;;;5005661;28;20153;-64
2023/03/31 09:26:27;;;;;;;4.07;0.77;;;;;;;;;;5008487;28;20628;-64
2023/03/31 09:28:58;;;;;;;0.98;0.75;;;;;;;;;;5008079;28;20076;-66
2023/03/31 09:31:28;;;;;;;1.80;0.90;;;;;;;;;;5010800;28;20050;-63
2023/03/31 09:34:00;;;;;;;1.10;0.73;;;;;;;;;;5009449;28;20053;-62
2023/03/31 09:36:28;;;;;;;0.77;0.52;;;;;;;;;;5006067;28;20055;-64
2023/03/31 09:38:57;;;;;;;1.50;0.80;;;;;;;;;;5009149;28;20151;-65
2023/03/31 09:41:25;;;;;;;2.25;0.80;;;;;;;;;;5006079;28;20052;-63
2023/03/31 09:43:54;;;;;;;2.33;1.02;;;;;;;;;;5007086;28;20578;-65
2023/03/31 09:46:26;;;;;;;3.50;0.80;;;;;;;;;;5005993;28;20060;-63
2023/03/31 09:49:00;;;;;;;8.18;1.48;;;;;;;;;;5012214;28;20141;-64
2023/03/31 09:51:31;;;;;;;1.80;1.08;;;;;;;;;;5005868;28;20069;-64
2023/03/31 09:54:03;;;;;;;2.05;0.98;;;;;;;;;;5007549;28;21390;-63
2023/03/31 09:56:47;;;;;;;1.50;0.82;;;;;;;;;;5003819;28;20546;-62
2023/03/31 09:59:17;;;;;;;1.42;0.90;;;;;;;;;;5003572;28;20085;-64
2023/03/31 10:01:47;;;;;;;1.98;0.43;;;;;;;;;;5011339;28;20521;-62
2023/03/31 10:04:20;;;;;;;2.05;0.63;;;;;;;;;;5010502;28;20054;-62
2023/03/31 10:06:49;;;;;;;0.80;0.80;;;;;;;;;;5007909;28;20053;-62
2023/03/31 10:09:17;;;;;;;0.70;0.50;;;;;;;;;;5008955;28;20064;-62
2023/03/31 10:11:53;;;;;;;1.02;0.50;;;;;;;;;;5014624;28;20050;-63
2023/03/31 10:14:26;;;;;;;3.15;0.70;;;;;;;;;;5014485;28;21595;-62
2023/03/31 10:16:55;;;;;;;0.60;0.60;;;;;;;;;;5010779;28;20179;-62
2023/03/31 10:19:26;;;;;;;1.63;0.90;;;;;;;;;;5008213;28;20175;-63
2023/03/31 10:21:59;;;;;;;0.55;0.50;;;;;;;;;;5011931;28;20533;-63
2023/03/31 10:24:36;;;;;;;1.25;0.93;;;;;;;;;;5010033;28;20049;-63
2023/03/31 10:27:06;;;;;;;1.73;1.17;;;;;;;;;;5009495;28;20104;-63
2023/03/31 10:29:35;;;;;;;2.22;0.90;;;;;;;;;;5008039;28;20140;-63
2023/03/31 10:32:05;;;;;;;1.25;0.63;;;;;;;;;;4999329;28;20128;-63
2023/03/31 10:34:35;;;;;;;1.20;0.70;;;;;;;;;;5010537;28;20928;-63
2023/03/31 10:37:04;;;;;;;1.23;0.65;;;;;;;;;;5003674;28;20083;-63
2023/03/31 10:39:33;;;;;;;0.98;0.82;;;;;;;;;;5010378;28;20047;-63
2023/03/31 10:42:01;;;;;;;2.35;0.65;;;;;;;;;;5010971;28;20482;-63
2023/03/31 10:44:35;;;;;;;3.05;0.98;;;;;;;;;;5007038;28;20063;-63
2023/03/31 10:47:05;;;;;;;1.52;0.65;;;;;;;;;;5009937;28;20073;-63
2023/03/31 10:49:39;;;;;;;0.40;0.40;;;;;;;;;;5006575;28;20053;-63
2023/03/31 10:52:17;;;;;;;1.07;0.80;;;;;;;;;;5012624;28;20525;-63
2023/03/31 10:54:53;;;;;;;6.65;0.75;;;;;;;;;;5008763;28;20053;-63
2023/03/31 10:57:25;;;;;;;4.00;0.75;;;;;;;;;;5010506;28;20129;-64
2023/03/31 11:00:03;;;;;;;4.75;0.77;;;;;;;;;;5011923;28;20999;-63
2023/03/31 11:02:42;;;;;;;1.58;0.90;;;;;;;;;;5009646;28;20490;-63
2023/03/31 11:05:16;;;;;;;2.65;1.02;;;;;;;;;;5007103;28;20407;-63
2023/03/31 11:07:51;;;;;;;4.43;0.65;;;;;;;;;;5012690;28;20148;-62
2023/03/31 11:10:19;;;;;;;;;;;;;;;;;;5008507;28;20045;-62
2023/03/31 11:12:50;;;;;;;0.82;0.55;;;;;;;;;;5012838;28;20016;-63
2023/03/31 11:15:22;;;;;;;0.80;0.68;;;;;;;;;;5008047;28;20046;-62
2023/03/31 11:17:58;;;;;;;0.50;0.50;;;;;;;;;;5007929;28;20133;-63
2023/03/31 11:20:31;;;;;;;2.47;1.23;;;;;;;;;;5012113;28;20640;-62
2023/03/31 11:23:03;;;;;;;2.60;0.60;;;;;;;;;;5009836;28;20494;-63
2023/03/31 11:25:35;;;;;;;1.65;0.80;;;;;;;;;;5006383;28;20141;-62
2023/03/31 11:28:14;;;;;;;1.48;0.75;;;;;;;;;;5000040;28;20067;-63
2023/03/31 11:30:47;;;;;;;0.32;0.32;;;;;;;;;;5007500;28;20056;-64
2023/03/31 11:33:27;;;;;;;0.30;0.30;;;;;;;;;;5011983;28;20129;-62
2023/03/31 11:36:04;;;;;;;1.08;0.30;;;;;;;;;;5007644;28;20057;-60
2023/03/31 11:38:44;;;;;;;0.10;0.10;;;;;;;;;;5009771;28;20092;-60
2023/03/31 11:41:15;;;;;;;1.02;0.93;;;;;;;;;;5010360;28;20422;-60
2023/03/31 11:43:44;;;;;;;0.70;0.50;;;;;;;;;;5010786;28;20049;-59
2023/03/31 11:46:14;;;;;;;1.33;0.30;;;;;;;;;;5004830;28;20483;-59
2023/03/31 11:48:44;;;;;;;0.85;0.50;;;;;;;;;;5010801;28;20145;-59
2023/03/31 11:51:17;;;;;;;6.93;0.40;;;;;;;;;;5013982;28;20352;-59
2023/03/31 11:53:47;;;;;;;0.22;0.20;;;;;;;;;;5010453;28;20518;-60
2023/03/31 11:56:17;;;;;;;0.50;0.50;;;;;;;;;;5012020;28;20042;-59
2023/03/31 11:58:47;;;;;;;0.45;0.45;;;;;;;;;;5009839;28;20056;-58
2023/03/31 12:01:17;;;;;;;0.30;0.30;;;;;;;;;;5008068;28;20479;-59
2023/03/31 12:03:50;;;;;;;4.38;0.40;;;;;;;;;;5008401;28;20048;-58
2023/03/31 12:06:22;;;;;;;2.22;0.50;;;;;;;;;;5005506;28;20358;-59
2023/03/31 12:08:55;;;;;;;0.30;0.30;;;;;;;;;;5004840;28;20375;-59
2023/03/31 12:11:27;;;;;;;0.20;0.20;;;;;;;;;;5008437;28;20052;-60
2023/03/31 12:14:00;;;;;;;0.57;0.50;;;;;;;;;;5008883;28;20140;-59
2023/03/31 12:16:32;;;;;;;0.70;0.50;;;;;;;;;;5010746;28;20469;-60
2023/03/31 12:19:03;;;;;;;1.75;0.68;;;;;;;;;;5015296;28;20045;-61
2023/03/31 12:21:34;;;;;;;1.13;0.70;;;;;;;;;;5009873;28;20134;-60
2023/03/31 12:24:03;;;;;;;1.45;0.35;;;;;;;;;;5004347;28;20056;-59
2023/03/31 12:26:39;;;;;;;1.35;0.38;;;;;;;;;;5006561;28;20053;-62
2023/03/31 12:29:13;;;;;;;0.47;0.47;;;;;;;;;;5007052;28;20484;-60
2023/03/31 12:31:43;;;;;;;0.40;0.40;;;;;;;;;;5005919;28;20566;-60
2023/03/31 12:34:13;;;;;;;2.10;0.25;;;;;;;;;;5008017;28;21199;-59
2023/03/31 12:36:51;;;;;;;0.50;0.50;;;;;;;;;;5005670;28;20530;-60
2023/03/31 12:39:31;;;;;;;0.52;0.35;;;;;;;;;;5007714;28;20050;-60
2023/03/31 12:42:06;;;;;;;0.77;0.40;;;;;;;;;;5005049;28;20081;-59
2023/03/31 12:44:39;;;;;;;0.73;0.50;;;;;;;;;;5006521;28;20659;-59
2023/03/31 12:47:33;;;;;;;0.25;0.20;;;;;;;;;;5008960;28;20060;-59
2023/03/31 12:50:15;;;;;;;0.32;0.32;;;;;;;;;;5011695;28;20112;-59
2023/03/31 12:52:48;;;;;;;0.55;0.45;;;;;;;;;;5016667;28;21465;-59
2023/03/31 12:55:24;;;;;;;0.32;0.30;;;;;;;;;;5009004;28;20068;-59
2023/03/31 12:57:52;;;;;;;0.73;0.32;;;;;;;;;;5008290;28;20148;-59
2023/03/31 13:00:25;;;;;;;5.95;0.73;;;;;;;;;;5010390;28;20129;-59
2023/03/31 13:03:08;;;;;;;1.63;0.82;;;;;;;;;;5011628;28;20049;-59
2023/03/31 13:05:48;;;;;;;0.88;0.70;;;;;;;;;;5011923;28;20053;-61
2023/03/31 13:08:49;;;;;;;0.30;0.30;;;;;;;;;;4981496;28;20433;-60
2023/03/31 13:11:22;;;;;;;0.30;0.20;;;;;;;;;;4943771;28;20083;-59
2023/03/31 13:13:59;;;;;;;1.55;0.88;;;;;;;;;;4939973;28;20078;-59
2023/03/31 13:16:28;;;;;;;1.30;0.60;;;;;;;;;;4977389;28;20050;-59
2023/03/31 13:18:57;;;;;;;0.75;0.30;;;;;;;;;;5010150;28;20050;-59
2023/03/31 13:21:25;;;;;;;0.73;0.55;;;;;;;;;;5011234;28;20055;-60
2023/03/31 13:23:54;;;;;;;0.90;0.55;;;;;;;;;;5013191;28;20046;-59
2023/03/31 13:26:40;;;;;;;0.13;0.13;;;;;;;;;;5013666;28;20204;-60
2023/03/31 13:29:23;;;;;;;0.45;0.32;;;;;;;;;;5008965;28;20053;-61
2023/03/31 13:32:09;;;;;;;1.65;1.10;;;;;;;;;;5011742;28;20522;-60
2023/03/31 13:34:41;;;;;;;0.57;0.32;;;;;;;;;;5010962;28;20478;-59
2023/03/31 13:37:15;;;;;;;0.47;0.20;;;;;;;;;;5012719;28;20149;-59
2023/03/31 13:39:52;;;;;;;0.30;0.10;;;;;;;;;;5010762;28;20344;-61
2023/03/31 13:42:32;;;;;;;3.42;0.30;;;;;;;;;;5010472;28;20053;-59
2023/03/31 13:45:05;;;;;;;1.70;0.25;;;;;;;;;;5002090;28;20061;-60
2023/03/31 13:47:47;;;;;;;2.20;1.20;;;;;;;;;;5009233;28;20128;-60
2023/03/31 13:50:18;;;;;;;3.70;0.45;;;;;;;;;;4999438;28;20163;-60
2023/03/31 13:52:52;;;;;;;0.30;0.15;;;;;;;;;;5007477;28;20682;-61
2023/03/31 13:55:51;;;;;;;5.82;0.40;;;;;;;;;;5012972;28;20114;-61
2023/03/31 13:58:33;;;;;;;0.10;0.10;;;;;;;;;;4929698;28;20059;-60
2023/03/31 14:01:18;;;;;;;3.40;0.30;;;;;;;;;;5000383;28;20166;-60
2023/03/31 14:03:56;;;;;;;0.50;0.30;;;;;;;;;;5008311;28;20050;-59
2023/03/31 14:06:26;;;;;;;0.00;0.00;;;;;;;;;;5007283;28;20042;-59
2023/03/31 14:08:56;;;;;;;1.55;0.20;;;;;;;;;;5007130;28;20070;-59
2023/03/31 14:11:25;;;;;;;3.33;0.43;;;;;;;;;;5012564;28;20046;-60
2023/03/31 14:14:02;;;;;;;0.17;0.10;;;;;;;;;;5011931;28;20597;-60
2023/03/31 14:16:33;;;;;;;0.10;0.10;;;;;;;;;;5009411;28;20054;-60
2023/03/31 14:19:08;;;;;;;0.32;0.20;;;;;;;;;;5010636;28;20046;-60
2023/03/31 14:21:36;;;;;;;;;;;;;;;;;;5012053;28;20144;-59
2023/03/31 14:24:10;;;;;;;0.15;0.15;;;;;;;;;;5011718;28;19943;-59
2023/03/31 14:26:46;;;;;;;0.25;0.25;;;;;;;;;;5007249;28;20069;-60
2023/03/31 14:29:20;;;;;;;2.65;0.20;;;;;;;;;;5011614;28;20050;-59
2023/03/31 14:31:54;;;;;;;0.63;0.25;;;;;;;;;;5012458;28;20513;-60
2023/03/31 14:34:46;;;;;;;3.70;0.10;;;;;;;;;;5008958;28;20616;-61
2023/03/31 14:37:16;;;;;;;1.65;0.28;;;;;;;;;;4998665;28;20045;-60
2023/03/31 14:39:46;;;;;;;1.17;0.20;;;;;;;;;;5008774;28;21573;-59
2023/03/31 14:42:17;;;;;;;0.52;0.20;;;;;;;;;;5007193;28;20056;-59
2023/03/31 14:44:46;;;;;;;0.98;0.30;;;;;;;;;;5006179;28;20059;-61
2023/03/31 14:47:16;;;;;;;3.75;0.25;;;;;;;;;;5009625;28;20502;-60
2023/03/31 14:49:45;;;;;;;0.90;0.28;;;;;;;;;;5006478;28;20140;-59
2023/03/31 14:52:15;;;;;;;0.38;0.38;;;;;;;;;;5009785;28;20069;-60
2023/03/31 14:54:46;;;;;;;0.50;0.20;;;;;;;;;;5009949;28;20050;-60
2023/03/31 14:57:17;;;;;;;0.20;0.20;;;;;;;;;;5010824;28;20057;-58
2023/03/31 14:59:48;;;;;;;2.38;0.20;;;;;;;;;;5010718;28;20572;-60
2023/03/31 15:02:18;;;;;;;1.85;0.20;;;;;;;;;;5005163;28;20048;-60
2023/03/31 15:04:48;;;;;;;0.15;0.15;;;;;;;;;;5010016;28;20045;-60
2023/03/31 15:07:17;;;;;;;1.15;0.08;;;;;;;;;;5011173;28;20050;-61
2023/03/31 15:09:49;;;;;;;0.10;0.10;;;;;;;;;;5015702;28;20098;-59